Kibworth Harcourt, United Kingdom
Current Conditions -  °F | °C
As of 12:50 PM on Friday 28 Nov 2014 (Local Time) from EGXT Reporting Station
Haze Haze  
Wind Chill: 10°   Ceiling: 200
Heat Index: 10°   Visibility: 1.5mi
Dew Point: 10°   Wind: 10mph
Humidity: 100%   Direction: 90°E
Pressure: 29.65"   Gusts: NA
Location:  52.54°N, 0.99°W
Report Text: EGXT 281250Z 09009KT 2500 BR OVC002 10/10 Q1004 AMB
Loading
Personal Weather Stations






























Interactive Weather Map New forecast layout! Learn more

10-Day Weather Forecast

Advertisements
Track Severe Weather on mobile